createdAt,value
2023-04-17T00:01:20.756Z,33.18
2023-04-17T00:03:57.271Z,34.12
2023-04-17T00:06:27.024Z,34.76
2023-04-17T00:09:03.584Z,34.88
2023-04-17T00:11:38.055Z,35.58
2023-04-17T00:14:07.820Z,35.24
2023-04-17T00:16:37.046Z,35.27
2023-04-17T00:19:06.347Z,35.43
2023-04-17T00:21:35.945Z,34.81
2023-04-17T00:24:07.709Z,34.82
2023-04-17T00:26:37.133Z,34.99
2023-04-17T00:29:06.426Z,34.60
2023-04-17T00:31:36.446Z,34.40
2023-04-17T00:34:14.560Z,34.51
2023-04-17T00:36:43.807Z,34.46
2023-04-17T00:41:54.697Z,33.85
2023-04-17T00:44:29.360Z,34.45
2023-04-17T00:46:58.978Z,34.81
2023-04-17T00:49:30.608Z,35.45
2023-04-17T00:52:01.109Z,35.82
2023-04-17T00:54:37.668Z,36.04
2023-04-17T00:57:07.646Z,35.92
2023-04-17T00:59:38.283Z,36.56
2023-04-17T01:02:13.348Z,36.79
2023-04-17T01:04:42.773Z,36.77
2023-04-17T01:07:12.020Z,36.57
2023-04-17T01:09:43.437Z,36.67
2023-04-17T01:12:20.997Z,37.30
2023-04-17T01:14:52.273Z,36.92
2023-04-17T01:17:22.116Z,37.27
2023-04-17T01:19:52.452Z,37.09
2023-04-17T01:22:33.374Z,38.42
2023-04-17T01:25:04.888Z,37.67
2023-04-17T01:27:38.224Z,37.65
2023-04-17T01:30:08.920Z,38.05
2023-04-17T01:32:45.391Z,38.06
2023-04-17T01:35:19.787Z,38.63
2023-04-17T01:37:49.196Z,38.35
2023-04-17T01:40:26.426Z,38.93
2023-04-17T01:43:00.726Z,38.90
2023-04-17T01:45:35.611Z,38.26
2023-04-17T01:48:05.158Z,38.54
2023-04-17T01:50:34.259Z,38.67
2023-04-17T01:53:03.522Z,38.55
2023-04-17T01:55:34.721Z,38.28
2023-04-17T01:58:04.538Z,38.31
2023-04-17T02:00:38.846Z,39.63
2023-04-17T02:03:08.444Z,39.35
2023-04-17T02:05:37.763Z,39.45
2023-04-17T02:08:08.496Z,39.43
2023-04-17T02:10:46.416Z,40.06
2023-04-17T02:13:15.778Z,39.30
2023-04-17T02:15:47.296Z,39.07
2023-04-17T02:18:42.839Z,38.95
2023-04-17T02:21:12.072Z,38.85
2023-04-17T02:23:41.472Z,39.31
2023-04-17T02:26:12.932Z,39.86
2023-04-17T02:28:42.235Z,39.75
2023-04-17T02:31:13.389Z,39.82
2023-04-17T02:33:42.950Z,39.91
2023-04-17T02:36:13.284Z,39.81
2023-04-17T02:41:22.643Z,39.72
2023-04-17T02:43:52.069Z,39.10
2023-04-17T02:46:21.404Z,39.67
2023-04-17T02:48:50.997Z,38.85
2023-04-17T02:51:23.378Z,39.06
2023-04-17T02:53:52.955Z,38.64
2023-04-17T02:56:24.279Z,39.02
2023-04-17T02:58:54.193Z,38.73
2023-04-17T03:01:23.849Z,38.72
2023-04-17T03:03:53.526Z,38.34
2023-04-17T03:06:23.710Z,38.17
2023-04-17T03:08:53.126Z,37.52
2023-04-17T03:11:29.549Z,37.63
2023-04-17T03:13:59.057Z,37.36
2023-04-17T03:16:28.748Z,36.60
2023-04-17T03:19:02.889Z,36.00
2023-04-17T03:21:37.403Z,35.70
2023-04-17T03:24:07.624Z,35.52
2023-04-17T03:26:39.632Z,35.71
2023-04-17T03:29:15.429Z,35.90
2023-04-17T03:31:44.758Z,36.16
2023-04-17T03:34:14.946Z,36.50
2023-04-17T03:36:50.642Z,37.35
2023-04-17T03:39:20.299Z,36.79
2023-04-17T03:41:51.929Z,36.53
2023-04-17T03:44:21.531Z,35.42
2023-04-17T03:46:50.756Z,35.06
2023-04-17T03:49:26.586Z,34.28
2023-04-17T03:51:57.132Z,33.99
2023-04-17T03:54:32.151Z,33.99
2023-04-17T03:57:04.236Z,33.60
2023-04-17T03:59:41.373Z,33.44
2023-04-17T04:02:10.939Z,33.74
2023-04-17T04:04:41.060Z,33.78
2023-04-17T04:07:21.882Z,33.58
2023-04-17T04:09:52.577Z,33.54
2023-04-17T04:12:24.351Z,32.96
2023-04-17T04:14:53.828Z,33.10
2023-04-17T04:17:23.196Z,33.30
2023-04-17T04:19:52.751Z,33.34
2023-04-17T04:22:23.166Z,33.08
2023-04-17T04:25:00.537Z,32.34
2023-04-17T04:27:45.249Z,32.53
2023-04-17T04:30:16.406Z,32.00
2023-04-17T04:33:06.420Z,32.07
2023-04-17T04:35:47.373Z,32.27
2023-04-17T04:38:17.398Z,32.02
2023-04-17T04:40:56.838Z,31.30
2023-04-17T04:43:28.229Z,30.36
2023-04-17T04:46:03.777Z,30.12
2023-04-17T04:48:36.690Z,30.12
2023-04-17T04:51:06.194Z,29.68
2023-04-17T04:53:36.622Z,29.55
2023-04-17T04:56:07.689Z,29.09
2023-04-17T04:58:40.319Z,28.91
2023-04-17T05:01:10.327Z,29.13
2023-04-17T05:03:47.363Z,29.04
2023-04-17T05:06:30.947Z,28.59
2023-04-17T05:09:04.145Z,29.49
2023-04-17T05:11:39.149Z,29.20
2023-04-17T05:14:11.922Z,28.51
2023-04-17T05:16:54.989Z,28.42
2023-04-17T05:19:25.527Z,28.58
2023-04-17T05:24:54.930Z,29.16
2023-04-17T05:27:26.457Z,29.27
2023-04-17T05:30:15.886Z,28.87
2023-04-17T05:32:48.731Z,28.97
2023-04-17T05:35:47.626Z,28.62
2023-04-17T05:38:23.917Z,28.59
2023-04-17T05:40:55.034Z,28.72
2023-04-17T05:43:24.475Z,28.61
2023-04-17T05:45:59.026Z,28.51
2023-04-17T05:48:34.471Z,28.29
2023-04-17T05:51:06.534Z,28.53
2023-04-17T05:53:36.016Z,27.86
2023-04-17T05:56:06.508Z,27.54
2023-04-17T05:58:37.526Z,27.89
2023-04-17T06:01:12.992Z,27.36
2023-04-17T06:03:48.877Z,26.95
2023-04-17T06:06:23.932Z,27.07
2023-04-17T06:08:54.684Z,27.45
2023-04-17T06:11:26.258Z,27.46
2023-04-17T06:13:59.182Z,27.50
2023-04-17T06:16:31.621Z,26.68
2023-04-17T06:19:01.068Z,26.58
2023-04-17T06:21:31.198Z,26.21
2023-04-17T06:24:02.664Z,26.46
2023-04-17T06:26:36.965Z,25.97
2023-04-17T06:29:17.944Z,25.68
2023-04-17T06:31:54.603Z,26.10
2023-04-17T06:34:25.263Z,25.89
2023-04-17T06:36:57.265Z,25.79
2023-04-17T06:39:27.105Z,25.81
2023-04-17T06:41:58.936Z,26.15
2023-04-17T06:44:31.226Z,25.76
2023-04-17T06:47:10.812Z,25.65
2023-04-17T06:49:40.411Z,25.85
2023-04-17T06:52:14.714Z,26.24
2023-04-17T06:54:44.154Z,25.89
2023-04-17T06:57:13.600Z,26.09
2023-04-17T06:59:49.075Z,26.13
2023-04-17T07:02:20.748Z,26.27
2023-04-17T07:04:50.407Z,25.96
2023-04-17T07:07:19.904Z,25.79
2023-04-17T07:09:49.267Z,25.88
2023-04-17T07:12:18.561Z,25.89
2023-04-17T07:14:47.867Z,25.16
2023-04-17T07:17:17.621Z,24.88
2023-04-17T07:19:49.189Z,24.58
2023-04-17T07:22:18.457Z,24.76
2023-04-17T07:24:53.864Z,24.31
2023-04-17T07:27:23.166Z,24.47
2023-04-17T07:29:54.387Z,24.76
2023-04-17T07:32:24.386Z,23.91
2023-04-17T07:34:57.087Z,23.97
2023-04-17T07:37:32.496Z,23.28
2023-04-17T07:40:01.906Z,23.50
2023-04-17T07:42:33.338Z,23.60
2023-04-17T07:45:03.115Z,23.47
2023-04-17T07:47:46.019Z,23.23
2023-04-17T07:50:17.572Z,23.37
2023-04-17T07:52:46.968Z,23.66
2023-04-17T07:55:16.399Z,24.14
2023-04-17T07:57:52.812Z,23.90
2023-04-17T08:00:23.673Z,24.31
2023-04-17T08:02:58.151Z,24.25
2023-04-17T08:05:31.061Z,24.46
2023-04-17T08:08:07.279Z,24.85
2023-04-17T08:10:37.006Z,24.66
2023-04-17T08:13:06.277Z,25.22
2023-04-17T08:15:39.614Z,24.98
2023-04-17T08:18:09.326Z,25.09
2023-04-17T08:20:41.144Z,25.77
2023-04-17T08:23:10.641Z,25.79
2023-04-17T08:25:39.936Z,25.61
2023-04-17T08:28:19.871Z,25.96
2023-04-17T08:30:54.293Z,26.07
2023-04-17T08:33:23.616Z,26.42
2023-04-17T08:35:55.198Z,26.72
2023-04-17T08:38:30.930Z,26.63
2023-04-17T08:41:05.327Z,26.67
2023-04-17T08:46:12.931Z,25.50
2023-04-17T08:48:42.420Z,25.76
2023-04-17T08:51:13.760Z,26.04
2023-04-17T08:53:43.079Z,25.56
2023-04-17T08:56:12.215Z,25.74
2023-04-17T08:58:46.826Z,25.06
2023-04-17T09:01:18.669Z,25.47
2023-04-17T09:03:48.864Z,25.45
2023-04-17T09:06:20.803Z,24.36
2023-04-17T09:09:00.517Z,24.67
2023-04-17T09:11:30.318Z,24.09
2023-04-17T09:14:00.981Z,23.75
2023-04-17T09:16:30.265Z,23.15
2023-04-17T09:19:13.667Z,22.62
2023-04-17T09:21:45.315Z,21.69
2023-04-17T09:24:14.667Z,21.62
2023-04-17T09:26:43.835Z,21.08
2023-04-17T09:29:14.253Z,21.41
2023-04-17T09:31:45.862Z,21.30
2023-04-17T09:34:16.157Z,21.22
2023-04-17T09:36:51.137Z,21.42
2023-04-17T09:39:24.068Z,21.91
2023-04-17T09:42:05.813Z,22.04
2023-04-17T09:44:41.965Z,21.43
2023-04-17T09:47:14.271Z,21.23
2023-04-17T09:49:49.454Z,21.36
2023-04-17T09:52:23.169Z,20.83
2023-04-17T09:54:53.355Z,21.50
2023-04-17T09:57:36.705Z,21.16
2023-04-17T10:00:14.520Z,20.87
2023-04-17T10:02:44.859Z,20.81
2023-04-17T10:05:20.131Z,20.90
2023-04-17T10:07:51.638Z,20.96
2023-04-17T10:10:25.382Z,20.66
2023-04-17T10:15:41.373Z,20.78
2023-04-17T10:18:25.088Z,19.84
2023-04-17T10:20:55.525Z,20.10
2023-04-17T10:23:31.816Z,20.09
2023-04-17T10:26:30.975Z,19.94
2023-04-17T10:29:00.258Z,20.13
2023-04-17T10:32:11.628Z,19.30
2023-04-17T10:34:46.439Z,19.93
2023-04-17T10:37:17.064Z,19.93
2023-04-17T10:40:06.175Z,19.72
2023-04-17T10:42:35.724Z,19.76
2023-04-17T10:45:05.704Z,19.89
2023-04-17T10:47:38.618Z,19.40
2023-04-17T10:50:11.543Z,19.69
2023-04-17T10:52:46.624Z,19.56
2023-04-17T10:55:22.713Z,19.57
2023-04-17T10:58:01.880Z,19.91
2023-04-17T11:00:36.848Z,20.42
2023-04-17T11:03:08.737Z,20.19
2023-04-17T11:05:46.532Z,20.12
2023-04-17T11:08:23.369Z,19.97
2023-04-17T11:10:58.145Z,19.89
2023-04-17T11:13:38.196Z,20.12
2023-04-17T11:16:07.794Z,20.43
2023-04-17T11:18:37.087Z,20.39
2023-04-17T11:21:07.058Z,20.61
2023-04-17T11:23:49.308Z,20.49
2023-04-17T11:26:30.767Z,20.68
2023-04-17T11:29:01.665Z,21.04
2023-04-17T11:31:34.355Z,20.96
2023-04-17T11:34:10.897Z,21.25
2023-04-17T11:36:40.314Z,21.16
2023-04-17T11:39:10.109Z,21.32
2023-04-17T11:41:47.689Z,21.45
2023-04-17T11:44:19.760Z,21.10
2023-04-17T11:46:52.934Z,21.26
2023-04-17T11:49:39.972Z,21.55
2023-04-17T11:52:10.357Z,21.62
2023-04-17T11:54:40.875Z,21.38
2023-04-17T11:57:18.014Z,21.17
2023-04-17T11:59:47.363Z,20.90
2023-04-17T12:02:17.106Z,20.74
2023-04-17T12:04:51.665Z,21.09
2023-04-17T12:07:31.886Z,20.87
2023-04-17T12:10:01.232Z,20.88
2023-04-17T12:12:34.145Z,21.13
2023-04-17T12:15:10.094Z,21.22
2023-04-17T12:17:50.899Z,21.06
2023-04-17T12:20:20.597Z,21.27
2023-04-17T12:22:49.765Z,20.75
2023-04-17T12:25:19.015Z,21.15
2023-04-17T12:27:50.963Z,20.82
2023-04-17T12:30:20.626Z,21.50
2023-04-17T12:32:51.913Z,21.73
2023-04-17T12:35:22.115Z,21.79
2023-04-17T12:37:53.411Z,22.23
2023-04-17T12:40:25.124Z,22.26
2023-04-17T12:43:01.651Z,22.25
2023-04-17T12:52:10.125Z,22.09
2023-04-17T12:54:52.387Z,22.16
2023-04-17T12:57:21.721Z,22.60
2023-04-17T12:59:50.984Z,22.26
2023-04-17T13:02:20.873Z,22.40
2023-04-17T13:04:53.569Z,22.57
2023-04-17T13:07:38.520Z,22.30
2023-04-17T13:10:09.552Z,22.54
2023-04-17T13:12:44.752Z,22.75
2023-04-17T13:15:33.910Z,22.76
2023-04-17T13:18:03.414Z,23.15
2023-04-17T13:23:14.481Z,23.48
2023-04-17T13:25:49.022Z,23.61
2023-04-17T13:28:18.539Z,24.40
2023-04-17T13:30:48.156Z,24.11
2023-04-17T13:33:22.699Z,23.81
2023-04-17T13:35:53.488Z,24.32
2023-04-17T13:38:30.407Z,23.81
2023-04-17T13:41:04.912Z,24.31
2023-04-17T13:43:34.261Z,24.67
2023-04-17T13:46:04.227Z,24.32
2023-04-17T13:48:33.624Z,24.05
2023-04-17T13:51:22.751Z,24.34
2023-04-17T13:53:54.160Z,23.83
2023-04-17T13:56:29.852Z,24.17
2023-04-17T13:59:00.231Z,24.31
2023-04-17T14:01:34.563Z,24.63
2023-04-17T14:04:04.133Z,24.92
2023-04-17T14:06:40.173Z,25.29
2023-04-17T14:09:11.964Z,25.21
2023-04-17T14:11:41.421Z,25.51
2023-04-17T14:14:12.268Z,25.94
2023-04-17T14:16:50.703Z,25.87
2023-04-17T14:19:35.127Z,25.98
2023-04-17T14:22:04.640Z,26.08
2023-04-17T14:24:35.907Z,26.00
2023-04-17T14:27:10.266Z,26.77
2023-04-17T14:29:39.520Z,27.07
2023-04-17T14:32:08.669Z,27.37
2023-04-17T14:34:38.166Z,27.19
2023-04-17T14:37:07.681Z,27.98
2023-04-17T14:39:39.395Z,28.08
2023-04-17T14:42:10.085Z,28.00
2023-04-17T14:44:44.454Z,27.95
2023-04-17T14:47:14.641Z,27.80
2023-04-17T14:52:20.118Z,27.07
2023-04-17T14:54:51.394Z,27.67
2023-04-17T14:57:44.007Z,27.35
2023-04-17T15:00:14.303Z,27.54
2023-04-17T15:02:43.770Z,27.39
2023-04-17T15:07:56.475Z,27.06
2023-04-17T15:10:44.113Z,27.47
2023-04-17T15:13:22.604Z,27.29
2023-04-17T15:15:56.898Z,27.81
2023-04-17T15:18:41.135Z,27.64
2023-04-17T15:21:10.797Z,27.66
2023-04-17T15:23:40.692Z,27.75
2023-04-17T15:26:12.307Z,27.85
2023-04-17T15:28:42.152Z,28.26
2023-04-17T15:31:11.458Z,28.08
2023-04-17T15:33:41.051Z,28.24
2023-04-17T15:36:20.526Z,28.17
2023-04-17T15:38:49.789Z,28.53
2023-04-17T15:41:21.289Z,28.68
2023-04-17T15:43:53.034Z,28.37
2023-04-17T15:46:22.329Z,28.87
2023-04-17T15:49:08.335Z,28.73
2023-04-17T15:51:46.254Z,28.50
2023-04-17T15:54:16.099Z,28.92
2023-04-17T15:56:47.263Z,29.21
2023-04-17T15:59:17.025Z,28.57
2023-04-17T16:01:47.811Z,29.30
2023-04-17T16:04:23.439Z,28.84
2023-04-17T16:06:53.286Z,28.95
2023-04-17T16:09:24.056Z,29.08
2023-04-17T16:11:56.236Z,28.50
2023-04-17T16:14:32.205Z,28.49
2023-04-17T16:17:01.713Z,28.90
2023-04-17T16:19:31.059Z,28.80
2023-04-17T16:22:00.867Z,28.66
2023-04-17T16:24:30.066Z,28.86
2023-04-17T16:27:02.622Z,28.86
2023-04-17T16:29:37.205Z,28.94
2023-04-17T16:32:11.439Z,28.85
2023-04-17T16:34:59.374Z,28.92
2023-04-17T16:37:28.690Z,29.32
2023-04-17T16:40:03.706Z,29.07
2023-04-17T16:42:40.139Z,28.83
2023-04-17T16:45:10.159Z,29.13
2023-04-17T16:47:40.211Z,29.03
2023-04-17T16:50:11.808Z,29.13
2023-04-17T16:52:59.705Z,29.09
2023-04-17T16:55:47.833Z,29.17
2023-04-17T16:58:19.444Z,29.58
2023-04-17T17:00:48.860Z,29.59
2023-04-17T17:03:18.442Z,29.75
2023-04-17T17:05:47.888Z,29.69
2023-04-17T17:08:17.526Z,30.14
2023-04-17T17:10:51.989Z,30.18
2023-04-17T17:13:23.696Z,29.95
2023-04-17T17:15:57.888Z,29.86
2023-04-17T17:18:41.314Z,29.62
2023-04-17T17:21:10.665Z,29.68
2023-04-17T17:23:40.340Z,29.89
2023-04-17T17:26:10.303Z,30.14
2023-04-17T17:28:41.584Z,29.61
2023-04-17T17:31:10.969Z,29.70
2023-04-17T17:33:40.314Z,29.96
2023-04-17T17:36:15.868Z,30.09
2023-04-17T17:38:45.334Z,29.99
2023-04-17T17:41:14.812Z,29.84
2023-04-17T17:43:46.237Z,29.99
2023-04-17T17:46:15.498Z,29.97
2023-04-17T17:48:59.723Z,30.22
2023-04-17T17:51:29.366Z,30.32
2023-04-17T17:53:58.569Z,30.37
2023-04-17T17:56:28.195Z,30.67
2023-04-17T17:59:14.246Z,30.52
2023-04-17T18:04:23.781Z,30.58
2023-04-17T18:06:59.837Z,30.58
2023-04-17T18:09:29.378Z,30.47
2023-04-17T18:11:58.804Z,30.91
2023-04-17T18:14:30.015Z,30.97
2023-04-17T18:16:59.246Z,30.95
2023-04-17T18:19:29.516Z,31.33
2023-04-17T18:22:05.287Z,31.29
2023-04-17T18:24:39.550Z,31.38
2023-04-17T18:27:09.151Z,31.49
2023-04-17T18:29:40.626Z,31.52
2023-04-17T18:32:15.098Z,31.72
2023-04-17T18:34:45.726Z,32.26
2023-04-17T18:37:20.169Z,32.49
2023-04-17T18:39:49.361Z,32.61
2023-04-17T18:42:18.602Z,32.72
2023-04-17T18:44:54.969Z,32.92
2023-04-17T18:47:24.388Z,32.64
2023-04-17T18:49:54.166Z,32.85
2023-04-17T18:52:23.646Z,33.38
2023-04-17T18:54:52.975Z,33.78
2023-04-17T18:57:37.382Z,33.92
2023-04-17T19:00:12.737Z,34.33
2023-04-17T19:02:47.509Z,34.22
2023-04-17T19:05:16.939Z,34.02
2023-04-17T19:07:47.480Z,34.29
2023-04-17T19:10:21.883Z,34.90
2023-04-17T19:12:51.238Z,34.59
2023-04-17T19:15:27.572Z,34.91
2023-04-17T19:17:56.934Z,35.41
2023-04-17T19:20:26.154Z,35.38
2023-04-17T19:22:56.751Z,35.66
2023-04-17T19:25:31.270Z,35.76
2023-04-17T19:28:00.421Z,35.74
2023-04-17T19:30:36.811Z,35.83
2023-04-17T19:33:06.898Z,35.51
2023-04-17T19:35:41.235Z,35.76
2023-04-17T19:38:10.619Z,35.45
2023-04-17T19:41:16.988Z,35.81
2023-04-17T19:43:46.709Z,35.59
2023-04-17T19:46:19.086Z,35.61
2023-04-17T19:48:50.414Z,36.07
2023-04-17T19:51:20.031Z,35.88
2023-04-17T19:53:49.380Z,36.08
2023-04-17T19:56:20.714Z,36.21
2023-04-17T19:58:50.065Z,35.92
2023-04-17T20:04:01.590Z,35.85
2023-04-17T20:06:31.415Z,36.14
2023-04-17T20:09:07.218Z,35.89
2023-04-17T20:14:19.349Z,35.65
2023-04-17T20:16:50.932Z,36.29
2023-04-17T20:19:20.351Z,35.81
2023-04-17T20:21:49.654Z,35.81
2023-04-17T20:24:19.015Z,36.16
2023-04-17T20:26:48.382Z,35.77
2023-04-17T20:29:17.671Z,35.73
2023-04-17T20:31:46.937Z,36.04
2023-04-17T20:34:23.591Z,35.96
2023-04-17T20:36:53.012Z,36.14
2023-04-17T20:39:22.295Z,36.11
2023-04-17T20:41:51.722Z,35.80
2023-04-17T20:44:21.811Z,36.24
2023-04-17T20:46:56.881Z,36.25
2023-04-17T20:49:28.265Z,36.64
2023-04-17T20:51:57.760Z,36.82
2023-04-17T20:54:27.004Z,37.01
2023-04-17T20:56:56.663Z,36.59
2023-04-17T20:59:25.783Z,37.15
2023-04-17T21:01:55.157Z,37.50
2023-04-17T21:04:31.496Z,37.39
2023-04-17T21:07:01.496Z,37.42
2023-04-17T21:09:30.826Z,37.70
2023-04-17T21:12:01.270Z,37.57
2023-04-17T21:14:33.149Z,38.06
2023-04-17T21:17:02.082Z,37.09
2023-04-17T21:19:36.697Z,38.20
2023-04-17T21:22:12.961Z,38.14
2023-04-17T21:24:42.408Z,38.53
2023-04-17T21:27:11.722Z,38.71
2023-04-17T21:29:40.910Z,38.65
2023-04-17T21:32:10.239Z,38.71
2023-04-17T21:34:41.424Z,38.65
2023-04-17T21:37:10.778Z,38.82
2023-04-17T21:39:40.021Z,38.98
2023-04-17T21:42:09.675Z,39.02
2023-04-17T21:44:38.988Z,39.23
2023-04-17T21:47:09.450Z,39.43
2023-04-17T21:49:40.642Z,39.34
2023-04-17T21:52:10.061Z,39.44
2023-04-17T21:54:39.281Z,39.29
2023-04-17T21:57:13.552Z,39.66
2023-04-17T21:59:42.939Z,39.52
2023-04-17T22:02:12.602Z,39.31
2023-04-17T22:04:49.051Z,39.88
2023-04-17T22:07:20.986Z,39.60
2023-04-17T22:09:50.383Z,39.29
2023-04-17T22:12:29.727Z,39.38
2023-04-17T22:14:59.040Z,39.57
2023-04-17T22:17:28.238Z,39.71
2023-04-17T22:20:04.505Z,39.94
2023-04-17T22:22:34.012Z,39.72
2023-04-17T22:25:03.305Z,39.50
2023-04-17T22:27:34.514Z,39.05
2023-04-17T22:30:03.848Z,39.19
2023-04-17T22:32:36.497Z,39.21
2023-04-17T22:35:09.318Z,39.53
2023-04-17T22:37:43.656Z,39.74
2023-04-17T22:40:14.459Z,39.49
2023-04-17T22:45:19.692Z,39.75
2023-04-17T22:47:48.962Z,39.58
2023-04-17T22:50:21.823Z,39.62
2023-04-17T22:52:56.179Z,39.56
2023-04-17T22:55:30.504Z,39.71
2023-04-17T22:57:59.664Z,39.52
2023-04-17T23:00:28.961Z,39.68
2023-04-17T23:03:03.390Z,39.76
2023-04-17T23:05:34.820Z,39.61
2023-04-17T23:08:04.201Z,39.83
2023-04-17T23:10:33.504Z,39.95
2023-04-17T23:13:02.938Z,39.89
2023-04-17T23:15:39.403Z,40.40
2023-04-17T23:18:08.757Z,40.09
2023-04-17T23:20:45.070Z,40.06
2023-04-17T23:23:15.938Z,40.21
2023-04-17T23:25:45.462Z,39.97
2023-04-17T23:28:19.682Z,40.00
2023-04-17T23:30:49.086Z,40.21
2023-04-17T23:33:18.481Z,40.08
2023-04-17T23:35:49.684Z,40.21
2023-04-17T23:38:24.136Z,39.77
2023-04-17T23:41:03.686Z,40.42
2023-04-17T23:43:33.044Z,39.94
2023-04-17T23:46:02.356Z,40.04
2023-04-17T23:48:31.721Z,40.06
2023-04-17T23:51:08.602Z,40.08
2023-04-17T23:53:38.016Z,40.60
2023-04-17T23:56:07.786Z,40.37
2023-04-17T23:58:37.066Z,40.59
